Time;durP1;ratioP1;P1;durP2;ratioP2;P2;SDS_P1;SDS_P2;PMS_P1;PMS_P2;Temp;Humidity;BMP_temperature;BMP_pressure;BME280_temperature;BME280_humidity;BME280_pressure;Samples;Min_cycle;Max_cycle;Signal;HPM_P1;HPM_P2
2021/10/22 00:01:43;;;;;;;15.80;4.23;;;8.70;78.60;;;;;;5061305;28;20768;-81
2021/10/22 00:04:09;;;;;;;11.40;4.80;;;8.70;78.20;;;;;;5061150;28;20205;-81
2021/10/22 00:06:34;;;;;;;14.47;4.50;;;8.70;78.30;;;;;;5061641;28;20185;-81
2021/10/22 00:09:00;;;;;;;12.37;4.20;;;8.60;78.20;;;;;;5043430;28;20207;-81
2021/10/22 00:11:26;;;;;;;12.23;5.33;;;8.60;78.30;;;;;;5061336;28;20925;-81
2021/10/22 00:13:52;;;;;;;9.77;4.47;;;8.50;78.20;;;;;;5061632;28;20197;-83
2021/10/22 00:16:18;;;;;;;12.63;4.07;;;8.60;78.30;;;;;;5045589;28;20440;-82
2021/10/22 00:18:43;;;;;;;10.70;3.80;;;8.70;78.20;;;;;;5063413;28;20407;-82
2021/10/22 00:21:09;;;;;;;13.10;4.03;;;8.70;77.60;;;;;;5044243;28;20519;-82
2021/10/22 00:23:35;;;;;;;8.73;3.65;;;8.60;77.60;;;;;;5044385;28;20572;-82
2021/10/22 00:26:01;;;;;;;9.07;3.80;;;8.40;77.70;;;;;;5045262;28;20181;-82
2021/10/22 00:28:28;;;;;;;12.00;4.00;;;8.40;78.10;;;;;;5067863;28;20173;-82
2021/10/22 00:30:53;;;;;;;14.27;4.18;;;8.40;78.00;;;;;;5055099;28;20244;-81
2021/10/22 00:33:19;;;;;;;12.47;5.00;;;8.40;78.10;;;;;;5055227;28;20220;-81
2021/10/22 00:35:45;;;;;;;8.67;4.27;;;8.50;78.40;;;;;;5037749;28;20181;-82
2021/10/22 00:38:10;;;;;;;16.23;4.30;;;8.40;78.40;;;;;;5055302;28;20174;-81
2021/10/22 00:40:36;;;;;;;18.23;4.73;;;8.30;78.60;;;;;;5038111;28;20181;-82
2021/10/22 00:43:02;;;;;;;17.00;3.90;;;8.30;78.90;;;;;;5051933;28;20185;-81
2021/10/22 00:45:28;;;;;;;10.85;5.35;;;8.20;78.80;;;;;;5047405;28;20224;-82
2021/10/22 00:47:53;;;;;;;21.60;4.83;;;8.10;78.80;;;;;;5029753;28;20245;-82
2021/10/22 00:50:19;;;;;;;13.27;4.90;;;8.20;78.80;;;;;;5028175;28;20189;-81
2021/10/22 00:52:46;;;;;;;8.37;4.17;;;8.20;78.80;;;;;;5026031;28;20201;-82
2021/10/22 00:55:13;;;;;;;12.38;3.67;;;8.20;78.90;;;;;;5042527;28;20269;-82
2021/10/22 00:57:40;;;;;;;12.18;4.13;;;8.30;78.90;;;;;;5026796;28;20174;-83
2021/10/22 01:00:06;;;;;;;11.82;4.60;;;8.50;78.70;;;;;;5025554;28;20241;-83
2021/10/22 01:02:35;;;;;;;10.43;3.20;;;8.50;78.30;;;;;;5026575;28;20189;-82
2021/10/22 01:05:06;;;;;;;13.35;4.38;;;8.50;77.90;;;;;;5057314;28;20217;-82
2021/10/22 01:07:36;;;;;;;7.10;4.00;;;8.40;78.00;;;;;;5059695;28;20162;-82
2021/10/22 01:10:04;;;;;;;20.13;4.85;;;8.20;78.10;;;;;;5057834;28;20173;-83
2021/10/22 01:12:31;;;;;;;20.42;5.07;;;8.10;78.50;;;;;;5056938;28;20205;-82
2021/10/22 01:14:57;;;;;;;17.10;4.10;;;8.10;79.50;;;;;;5058685;28;20203;-82
2021/10/22 01:17:39;;;;;;;13.05;4.63;;;8.00;78.70;;;;;;5043950;28;20243;-83
2021/10/22 01:20:10;;;;;;;10.18;3.95;;;8.00;79.00;;;;;;5061951;28;20181;-82
2021/10/22 01:22:38;;;;;;;16.23;4.97;;;7.90;79.10;;;;;;5042479;28;20178;-83
2021/10/22 01:25:06;;;;;;;10.35;4.43;;;8.00;79.10;;;;;;5024682;28;20231;-82
2021/10/22 01:27:33;;;;;;;10.50;4.80;;;8.00;79.00;;;;;;5058705;28;20177;-82
2021/10/22 01:29:59;;;;;;;16.35;4.68;;;8.00;79.00;;;;;;5057752;28;20153;-82
2021/10/22 01:32:25;;;;;;;15.03;4.27;;;8.10;79.10;;;;;;5038772;28;20546;-82
2021/10/22 01:34:50;;;;;;;14.60;4.50;;;7.90;79.00;;;;;;5050202;28;20440;-83
2021/10/22 01:37:16;;;;;;;11.20;3.63;;;7.90;79.00;;;;;;5017656;28;20848;-83
2021/10/22 01:39:42;;;;;;;12.03;4.50;;;8.00;79.00;;;;;;5039681;28;20170;-83
2021/10/22 01:42:08;;;;;;;12.27;4.67;;;7.90;79.10;;;;;;5021829;28;20596;-83
2021/10/22 01:44:34;;;;;;;14.13;4.10;;;7.90;79.10;;;;;;5040094;28;20668;-82
2021/10/22 01:47:00;;;;;;;13.25;4.38;;;7.90;79.10;;;;;;5022188;28;20205;-82
2021/10/22 01:49:25;;;;;;;12.60;4.20;;;7.90;79.10;;;;;;5022386;28;20637;-82
2021/10/22 01:51:51;;;;;;;6.70;3.80;;;7.80;79.00;;;;;;5021566;28;20835;-82
2021/10/22 01:54:17;;;;;;;12.07;3.70;;;7.70;79.10;;;;;;5020922;28;20201;-83
2021/10/22 01:56:43;;;;;;;9.27;3.40;;;7.70;79.10;;;;;;5021568;28;20706;-82
2021/10/22 01:59:09;;;;;;;14.93;4.10;;;7.80;78.90;;;;;;5021558;28;20183;-82
2021/10/22 02:01:34;;;;;;;12.70;4.30;;;7.80;78.80;;;;;;5021179;28;20523;-82
2021/10/22 02:04:00;;;;;;;20.03;4.30;;;7.70;78.90;;;;;;5036773;28;20289;-82
2021/10/22 02:06:26;;;;;;;14.93;4.57;;;7.70;79.00;;;;;;5053675;28;20197;-82
2021/10/22 02:08:52;;;;;;;15.97;3.63;;;7.80;78.90;;;;;;5039618;28;20684;-82
2021/10/22 02:11:17;;;;;;;7.63;2.90;;;7.70;78.80;;;;;;5055612;28;20431;-82
2021/10/22 02:13:44;;;;;;;6.30;2.80;;;7.80;78.80;;;;;;5044075;28;20264;-83
2021/10/22 02:16:10;;;;;;;8.43;3.20;;;7.90;78.80;;;;;;5060778;28;20416;-82
2021/10/22 02:18:38;;;;;;;8.17;3.30;;;7.80;78.40;;;;;;5061024;28;20185;-82
2021/10/22 02:21:03;;;;;;;11.85;3.53;;;7.70;78.60;;;;;;5059870;28;20431;-82
2021/10/22 02:23:29;;;;;;;11.43;3.13;;;7.70;78.50;;;;;;5059673;28;20205;-82
2021/10/22 02:25:55;;;;;;;19.80;4.70;;;7.60;78.40;;;;;;5060422;28;20204;-82
2021/10/22 02:28:21;;;;;;;9.83;3.97;;;7.60;78.50;;;;;;5059209;28;20565;-82
2021/10/22 02:30:47;;;;;;;7.77;3.20;;;7.70;78.70;;;;;;5058618;28;20208;-82
2021/10/22 02:33:13;;;;;;;9.93;3.28;;;7.80;78.60;;;;;;5053034;28;20824;-82
2021/10/22 02:35:40;;;;;;;14.10;3.15;;;7.80;78.40;;;;;;5040973;28;20561;-83
2021/10/22 02:38:06;;;;;;;12.48;4.00;;;7.70;78.30;;;;;;5055008;28;20169;-82
2021/10/22 02:40:32;;;;;;;6.63;3.30;;;7.70;78.20;;;;;;5039923;28;20178;-82
2021/10/22 02:42:58;;;;;;;14.23;4.33;;;7.60;78.20;;;;;;5055056;28;20182;-81
2021/10/22 02:45:23;;;;;;;16.23;3.97;;;7.60;78.40;;;;;;5041651;28;20423;-82
2021/10/22 02:47:49;;;;;;;9.80;3.33;;;7.60;78.40;;;;;;5058406;28;20188;-82
2021/10/22 02:50:17;;;;;;;17.00;3.20;;;7.50;78.40;;;;;;5050159;28;20411;-82
2021/10/22 02:52:43;;;;;;;12.18;3.85;;;7.60;78.40;;;;;;5062072;28;20208;-81
2021/10/22 02:55:09;;;;;;;13.50;3.07;;;7.50;78.40;;;;;;5060660;28;20200;-81
2021/10/22 02:57:35;;;;;;;16.52;3.47;;;7.60;78.40;;;;;;5061965;28;20173;-81
2021/10/22 03:00:01;;;;;;;16.57;4.00;;;7.70;78.40;;;;;;5060703;28;20272;-81
2021/10/22 03:02:27;;;;;;;10.70;3.65;;;7.60;78.40;;;;;;5055677;28;20444;-82
2021/10/22 03:04:53;;;;;;;13.13;5.20;;;7.60;78.40;;;;;;5057619;28;20579;-82
2021/10/22 03:07:18;;;;;;;12.80;4.63;;;7.50;78.20;;;;;;5057863;28;20558;-81
2021/10/22 03:09:44;;;;;;;6.63;3.37;;;7.50;78.20;;;;;;5041781;28;20416;-82
2021/10/22 03:12:10;;;;;;;10.90;3.77;;;7.60;78.10;;;;;;5047708;28;20322;-82
2021/10/22 03:14:35;;;;;;;16.60;4.10;;;7.50;78.00;;;;;;5061464;28;20193;-82
2021/10/22 03:17:01;;;;;;;5.73;3.00;;;7.50;78.00;;;;;;5062093;28;20620;-82
2021/10/22 03:19:27;;;;;;;12.10;3.50;;;7.50;77.90;;;;;;5064625;28;20185;-82
2021/10/22 03:21:53;;;;;;;8.70;3.20;;;7.50;78.00;;;;;;5063658;28;20797;-82
2021/10/22 03:24:18;;;;;;;11.00;3.50;;;7.50;78.10;;;;;;5064615;28;20569;-82
2021/10/22 03:26:44;;;;;;;15.20;5.07;;;7.50;78.00;;;;;;5070263;28;20453;-82
2021/10/22 03:29:10;;;;;;;10.43;3.00;;;7.60;78.10;;;;;;5069528;28;20184;-82
2021/10/22 03:31:36;;;;;;;9.70;3.00;;;7.50;78.10;;;;;;5069714;28;20432;-82
2021/10/22 03:34:02;;;;;;;9.87;2.80;;;7.60;78.10;;;;;;5054277;28;20205;-82
2021/10/22 03:36:28;;;;;;;7.85;4.38;;;7.60;78.00;;;;;;5049751;28;20444;-83
2021/10/22 03:38:54;;;;;;;10.73;3.80;;;7.70;78.00;;;;;;5049201;28;20204;-82
2021/10/22 03:41:19;;;;;;;11.83;3.47;;;7.60;77.90;;;;;;5064074;28;20240;-82
2021/10/22 03:43:45;;;;;;;6.20;3.00;;;7.60;77.80;;;;;;5063754;28;20229;-82
2021/10/22 03:46:11;;;;;;;20.23;3.20;;;7.70;77.70;;;;;;5047441;28;20217;-82
2021/10/22 03:48:37;;;;;;;18.40;4.00;;;7.80;77.60;;;;;;5041969;28;20182;-82
2021/10/22 03:51:02;;;;;;;14.15;3.00;;;7.70;77.40;;;;;;5055675;28;20228;-83
2021/10/22 03:53:28;;;;;;;9.53;3.87;;;7.80;77.10;;;;;;5047465;28;20263;-82
2021/10/22 03:55:54;;;;;;;8.10;2.90;;;7.80;76.80;;;;;;5046133;28;20290;-82
2021/10/22 03:58:20;;;;;;;6.80;2.87;;;7.70;76.80;;;;;;5045322;28;20205;-81
2021/10/22 04:00:46;;;;;;;17.63;2.70;;;7.80;76.90;;;;;;5061801;28;20177;-81
2021/10/22 04:03:14;;;;;;;11.57;2.55;;;7.60;77.40;;;;;;5062520;28;20228;-82
2021/10/22 04:05:41;;;;;;;14.95;3.40;;;7.50;77.00;;;;;;5066005;28;20197;-82
2021/10/22 04:08:07;;;;;;;21.40;3.05;;;7.50;77.10;;;;;;5067454;28;20181;-82
2021/10/22 04:10:33;;;;;;;10.27;2.90;;;7.50;77.20;;;;;;5068296;28;20187;-82
2021/10/22 04:13:00;;;;;;;14.70;3.60;;;7.60;77.00;;;;;;5065310;28;20485;-82
2021/10/22 04:15:26;;;;;;;16.83;3.20;;;7.70;77.00;;;;;;5064336;28;20173;-82
2021/10/22 04:17:52;;;;;;;4.50;2.10;;;7.60;76.80;;;;;;5059347;28;20235;-82
2021/10/22 04:20:18;;;;;;;5.60;2.70;;;7.70;76.80;;;;;;5057104;28;20187;-82
2021/10/22 04:22:44;;;;;;;7.57;2.90;;;7.70;76.90;;;;;;5058794;28;20542;-82
2021/10/22 04:25:10;;;;;;;4.90;2.90;;;7.70;77.00;;;;;;5060963;28;20197;-82
2021/10/22 04:27:37;;;;;;;15.93;2.63;;;7.50;77.00;;;;;;5061470;28;20790;-81
2021/10/22 04:30:07;;;;;;;15.55;3.15;;;7.50;77.30;;;;;;5061067;28;20622;-82
2021/10/22 04:32:33;;;;;;;16.02;2.60;;;7.60;77.40;;;;;;5061043;28;20539;-82
2021/10/22 04:34:59;;;;;;;5.97;2.75;;;7.60;77.40;;;;;;5062108;28;20284;-82
2021/10/22 04:37:33;;;;;;;8.00;2.53;;;7.50;77.40;;;;;;5058496;28;20205;-81
2021/10/22 04:42:50;;;;;;;12.05;3.45;;;7.60;77.30;;;;;;5057507;28;20215;-83
2021/10/22 04:45:18;;;;;;;19.50;2.72;;;7.50;77.30;;;;;;5053204;28;20248;-82
2021/10/22 04:47:44;;;;;;;9.07;2.85;;;7.60;77.40;;;;;;5071673;28;20272;-82
2021/10/22 04:50:10;;;;;;;7.33;2.70;;;7.60;77.20;;;;;;5067603;28;20188;-81
2021/10/22 04:52:37;;;;;;;10.50;3.33;;;7.50;77.20;;;;;;5075258;28;20454;-81
2021/10/22 04:55:04;;;;;;;13.88;2.85;;;7.50;77.50;;;;;;5073127;28;20219;-82
2021/10/22 04:57:30;;;;;;;11.50;3.22;;;7.60;77.50;;;;;;5073828;28;20166;-82
2021/10/22 04:59:56;;;;;;;6.63;3.30;;;7.60;77.40;;;;;;5065113;28;20188;-81
2021/10/22 05:02:21;;;;;;;8.00;4.10;;;7.80;77.40;;;;;;5059346;28;20192;-81
2021/10/22 05:04:47;;;;;;;16.70;3.47;;;7.50;77.30;;;;;;5059388;28;20737;-81
2021/10/22 05:07:12;;;;;;;8.40;3.50;;;7.50;77.40;;;;;;5042381;28;20173;-82
2021/10/22 05:09:38;;;;;;;10.93;4.13;;;7.60;77.40;;;;;;5059559;28;20181;-82
2021/10/22 05:12:07;;;;;;;8.10;2.73;;;7.60;77.50;;;;;;5042876;28;20201;-81
2021/10/22 05:14:36;;;;;;;8.50;3.10;;;7.50;77.60;;;;;;5058005;28;20197;-81
2021/10/22 05:17:04;;;;;;;7.53;2.65;;;7.60;77.80;;;;;;5040194;28;20675;-83
2021/10/22 05:19:30;;;;;;;14.38;3.83;;;7.60;77.80;;;;;;5041342;28;20215;-83
2021/10/22 05:21:56;;;;;;;11.55;3.40;;;7.60;77.60;;;;;;5042199;28;20186;-83
2021/10/22 05:24:23;;;;;;;7.77;2.53;;;7.70;78.40;;;;;;5058598;28;20691;-83
2021/10/22 05:26:49;;;;;;;11.70;3.20;;;7.60;77.80;;;;;;5057970;28;20450;-81
2021/10/22 05:29:14;;;;;;;9.27;2.13;;;7.80;77.80;;;;;;5059631;28;20177;-82
2021/10/22 05:31:40;;;;;;;8.50;2.10;;;7.70;77.70;;;;;;5038882;28;20614;-82
2021/10/22 05:34:07;;;;;;;5.40;2.77;;;7.70;77.90;;;;;;5040067;28;20251;-82
2021/10/22 05:36:32;;;;;;;6.70;2.67;;;7.60;78.00;;;;;;5038569;28;20432;-83
2021/10/22 05:38:58;;;;;;;6.83;3.07;;;7.50;78.30;;;;;;5021064;28;20185;-83
2021/10/22 05:41:24;;;;;;;7.43;2.17;;;7.60;78.60;;;;;;5021789;28;20192;-83
2021/10/22 05:43:50;;;;;;;5.73;2.77;;;7.90;78.70;;;;;;5026337;28;20439;-83
2021/10/22 05:46:19;;;;;;;5.65;2.50;;;7.90;78.50;;;;;;5041274;28;20287;-83
2021/10/22 05:48:45;;;;;;;9.93;3.55;;;8.10;78.40;;;;;;5040996;28;20211;-83
2021/10/22 05:51:12;;;;;;;5.43;2.38;;;8.10;77.90;;;;;;5040913;28;20173;-83
2021/10/22 05:53:38;;;;;;;11.35;4.05;;;8.10;77.70;;;;;;5059435;28;20599;-82
2021/10/22 05:56:04;;;;;;;5.43;2.60;;;8.10;78.40;;;;;;5042392;28;20181;-82
2021/10/22 05:58:30;;;;;;;8.93;2.90;;;8.20;77.60;;;;;;5043613;28;20174;-82
2021/10/22 06:00:56;;;;;;;12.93;2.90;;;8.20;77.40;;;;;;5042055;28;20177;-83
2021/10/22 06:03:22;;;;;;;8.90;3.10;;;8.20;77.30;;;;;;5041755;28;20543;-83
2021/10/22 06:05:53;;;;;;;7.57;2.47;;;8.20;77.40;;;;;;5042091;28;20217;-83
2021/10/22 06:08:19;;;;;;;9.18;2.40;;;8.20;77.40;;;;;;5070162;28;20207;-84
2021/10/22 06:10:46;;;;;;;15.70;3.10;;;8.30;77.60;;;;;;5054947;28;20189;-84
2021/10/22 06:13:14;;;;;;;16.00;2.30;;;8.30;77.60;;;;;;5049948;28;20251;-84
2021/10/22 06:15:40;;;;;;;3.53;2.50;;;8.10;77.60;;;;;;5049735;28;20220;-84
2021/10/22 06:18:06;;;;;;;11.40;2.50;;;8.00;77.70;;;;;;5044432;28;20178;-84
2021/10/22 06:20:42;;;;;;;5.23;2.40;;;8.00;77.90;;;;;;5051542;28;20705;-84
2021/10/22 06:25:42;;;;;;;14.57;4.28;;;8.10;78.30;;;;;;5035945;28;20178;-85
2021/10/22 06:28:13;;;;;;;10.93;3.00;;;8.10;78.20;;;;;;5050671;28;20193;-84
2021/10/22 06:30:39;;;;;;;10.63;2.40;;;8.00;78.10;;;;;;5052188;28;20166;-85
2021/10/22 06:33:05;;;;;;;5.97;2.30;;;8.00;78.00;;;;;;5050222;28;20202;-85
2021/10/22 06:35:31;;;;;;;8.27;3.10;;;8.00;77.90;;;;;;5035763;28;20405;-85
2021/10/22 06:37:57;;;;;;;6.32;2.13;;;8.00;77.80;;;;;;5050543;28;20644;-85
2021/10/22 06:40:23;;;;;;;7.20;3.50;;;7.90;77.90;;;;;;5035227;28;20189;-85
2021/10/22 06:42:51;;;;;;;11.65;2.80;;;8.00;77.70;;;;;;5050701;28;20178;-85
2021/10/22 06:45:17;;;;;;;6.03;2.80;;;8.10;77.70;;;;;;5034524;28;20224;-85
2021/10/22 06:47:50;;;;;;;15.43;2.38;;;8.20;77.30;;;;;;5051071;28;20178;-85
2021/10/22 06:50:17;;;;;;;5.35;2.38;;;8.20;77.30;;;;;;5019487;28;20213;-84
2021/10/22 06:52:42;;;;;;;10.48;3.45;;;8.20;77.20;;;;;;5066608;28;20232;-83
2021/10/22 06:55:12;;;;;;;10.20;2.93;;;8.20;77.30;;;;;;5029562;28;20206;-84
2021/10/22 06:57:41;;;;;;;12.02;2.78;;;8.40;77.30;;;;;;5068113;28;20480;-84
2021/10/22 07:00:11;;;;;;;5.72;2.10;;;8.40;77.00;;;;;;5069104;28;20182;-84
2021/10/22 07:02:50;;;;;;;13.85;2.72;;;8.50;76.90;;;;;;5045474;28;20220;-83
2021/10/22 07:07:55;;;;;;;9.75;2.38;;;8.70;76.10;;;;;;5057313;28;20157;-84
2021/10/22 07:10:21;;;;;;;7.90;2.90;;;8.60;75.60;;;;;;5037642;28;20669;-84
2021/10/22 07:12:47;;;;;;;3.10;2.60;;;8.60;75.70;;;;;;5056333;28;20204;-84
2021/10/22 07:15:14;;;;;;;15.50;2.90;;;8.70;75.70;;;;;;5054480;28;20227;-84
2021/10/22 07:17:40;;;;;;;7.78;2.55;;;8.70;75.50;;;;;;5057168;28;20173;-84
2021/10/22 07:20:06;;;;;;;13.27;2.25;;;8.90;75.70;;;;;;5056438;28;20247;-84
2021/10/22 07:22:34;;;;;;;9.05;2.40;;;8.90;75.40;;;;;;5057882;28;20249;-84
2021/10/22 07:24:59;;;;;;;6.80;2.35;;;9.10;75.20;;;;;;5055195;28;20201;-84
2021/10/22 07:27:25;;;;;;;8.33;2.57;;;9.10;75.00;;;;;;5056282;28;20577;-84
2021/10/22 07:29:51;;;;;;;9.90;2.17;;;9.20;74.80;;;;;;5057058;28;20551;-84
2021/10/22 07:32:17;;;;;;;7.90;3.30;;;9.20;74.30;;;;;;5058673;28;20514;-84
2021/10/22 07:34:43;;;;;;;9.07;2.70;;;9.30;74.20;;;;;;5057327;28;20196;-84
2021/10/22 07:37:08;;;;;;;10.90;3.20;;;9.30;74.00;;;;;;5059114;28;20412;-83
2021/10/22 07:39:34;;;;;;;16.17;2.97;;;9.40;73.80;;;;;;5060725;28;20637;-83
2021/10/22 07:42:01;;;;;;;7.72;2.45;;;9.50;73.70;;;;;;5050021;28;20174;-83
2021/10/22 07:44:27;;;;;;;7.35;2.60;;;9.30;73.70;;;;;;5021230;28;20217;-83
2021/10/22 07:46:53;;;;;;;6.88;1.90;;;9.30;73.80;;;;;;5021205;28;20277;-84
2021/10/22 07:49:20;;;;;;;7.75;2.75;;;9.40;73.70;;;;;;5021181;28;20272;-83
2021/10/22 07:51:46;;;;;;;4.88;2.03;;;9.30;73.80;;;;;;5020494;28;20679;-83
2021/10/22 07:54:12;;;;;;;8.67;2.77;;;9.20;74.00;;;;;;5020423;28;20190;-83
2021/10/22 07:56:40;;;;;;;7.87;2.20;;;9.40;74.20;;;;;;5020118;28;20663;-83
2021/10/22 07:59:06;;;;;;;15.77;2.95;;;9.40;74.20;;;;;;5019489;28;20166;-84
2021/10/22 08:01:33;;;;;;;5.78;1.75;;;9.60;74.90;;;;;;5037898;28;20186;-85
2021/10/22 08:03:59;;;;;;;9.73;2.23;;;9.60;73.80;;;;;;5020396;28;20204;-85
2021/10/22 08:06:25;;;;;;;12.65;2.80;;;9.70;73.80;;;;;;5032207;28;21007;-84
2021/10/22 08:08:51;;;;;;;11.50;3.97;;;9.80;73.20;;;;;;5038121;28;20190;-84
2021/10/22 08:11:16;;;;;;;4.87;2.07;;;9.90;73.00;;;;;;5054359;28;20185;-85
2021/10/22 08:13:44;;;;;;;8.00;2.50;;;9.90;72.70;;;;;;5069949;28;20486;-84
2021/10/22 08:16:10;;;;;;;14.23;3.13;;;9.80;72.80;;;;;;5056811;28;20640;-85
2021/10/22 08:18:40;;;;;;;11.10;3.00;;;9.90;73.20;;;;;;5058297;28;20177;-84
2021/10/22 08:23:51;;;;;;;9.00;3.10;;;9.80;73.10;;;;;;5057753;28;20212;-84
2021/10/22 08:26:17;;;;;;;5.97;2.80;;;9.90;73.40;;;;;;5057733;28;20177;-85
2021/10/22 08:28:47;;;;;;;8.83;2.33;;;10.00;73.50;;;;;;5056422;28;20189;-84
2021/10/22 08:31:13;;;;;;;5.40;2.90;;;10.10;73.50;;;;;;5056150;28;20470;-85
2021/10/22 08:33:39;;;;;;;10.13;2.80;;;10.10;73.40;;;;;;5055520;28;20225;-84
2021/10/22 08:36:08;;;;;;;6.97;3.35;;;10.10;73.20;;;;;;5039668;28;20418;-85
2021/10/22 08:38:35;;;;;;;5.85;2.63;;;10.20;73.50;;;;;;5057518;28;20173;-85
2021/10/22 08:41:02;;;;;;;12.20;3.15;;;10.20;73.60;;;;;;5055953;28;20184;-85
2021/10/22 08:43:28;;;;;;;10.57;2.38;;;10.20;73.50;;;;;;5036182;28;20213;-84
2021/10/22 08:45:56;;;;;;;11.13;2.97;;;10.30;73.60;;;;;;5054274;28;20182;-85
2021/10/22 08:48:25;;;;;;;7.40;2.58;;;10.30;73.40;;;;;;5019741;28;20463;-84
2021/10/22 08:50:56;;;;;;;6.68;2.78;;;10.30;73.40;;;;;;5038605;28;20168;-85
2021/10/22 08:53:23;;;;;;;6.72;3.28;;;10.50;73.30;;;;;;5036406;28;20218;-85
2021/10/22 08:55:49;;;;;;;16.67;3.50;;;10.50;73.00;;;;;;5037594;28;20185;-85
2021/10/22 08:58:18;;;;;;;11.03;2.80;;;10.70;72.80;;;;;;5037855;28;20182;-85
2021/10/22 09:00:45;;;;;;;9.68;2.60;;;10.70;72.40;;;;;;5052935;28;20463;-85
2021/10/22 09:03:13;;;;;;;7.45;2.85;;;10.60;72.40;;;;;;5036487;28;20186;-85
2021/10/22 09:06:04;;;;;;;11.38;2.97;;;10.60;72.60;;;;;;5037635;28;20585;-84
2021/10/22 09:08:36;;;;;;;6.40;2.85;;;10.70;72.60;;;;;;5020053;28;20182;-84
2021/10/22 09:11:04;;;;;;;6.60;2.35;;;10.70;72.40;;;;;;5037015;28;20181;-85
2021/10/22 09:13:33;;;;;;;10.05;2.90;;;10.80;72.20;;;;;;5034036;28;20209;-85
2021/10/22 09:16:00;;;;;;;8.35;2.55;;;10.90;71.80;;;;;;5041276;28;20197;-83
2021/10/22 09:18:31;;;;;;;11.45;2.40;;;11.00;71.70;;;;;;5058118;28;20189;-84
2021/10/22 09:21:02;;;;;;;7.78;2.20;;;11.10;71.60;;;;;;5040218;28;20195;-84
2021/10/22 09:23:34;;;;;;;12.00;2.60;;;11.10;71.50;;;;;;5023650;28;20209;-85
2021/10/22 09:26:18;;;;;;;9.13;2.90;;;11.10;71.40;;;;;;5040334;28;20181;-84
2021/10/22 09:28:45;;;;;;;7.07;2.50;;;11.20;71.20;;;;;;5057986;28;20185;-84
2021/10/22 09:31:12;;;;;;;11.48;3.33;;;11.30;70.70;;;;;;5040649;28;20177;-85
2021/10/22 09:33:53;;;;;;;11.45;2.97;;;11.40;70.10;;;;;;5057546;28;20212;-84
2021/10/22 09:36:35;;;;;;;4.38;2.10;;;11.60;69.50;;;;;;5058123;28;20644;-84
2021/10/22 09:39:17;;;;;;;9.45;2.78;;;11.60;69.10;;;;;;5040295;28;20185;-84
2021/10/22 09:41:57;;;;;;;32.38;3.90;;;11.60;69.00;;;;;;5040520;28;20199;-85
2021/10/22 09:44:28;;;;;;;12.20;2.60;;;11.50;69.20;;;;;;5040138;28;20193;-84
2021/10/22 09:47:06;;;;;;;10.40;2.55;;;11.60;69.30;;;;;;5040782;28;20173;-85
2021/10/22 09:49:43;;;;;;;9.52;2.80;;;11.70;69.40;;;;;;5057250;28;20287;-84
2021/10/22 09:52:28;;;;;;;6.80;2.60;;;11.70;69.20;;;;;;5039245;28;20192;-85
2021/10/22 09:55:04;;;;;;;9.02;2.63;;;11.80;68.90;;;;;;5038801;28;20738;-84
2021/10/22 09:57:30;;;;;;;12.27;3.58;;;11.60;68.50;;;;;;5056287;28;20192;-84
2021/10/22 10:00:07;;;;;;;25.00;3.47;;;11.70;68.60;;;;;;5057254;28;20632;-84
2021/10/22 10:02:39;;;;;;;6.22;2.58;;;11.80;68.50;;;;;;5023799;28;20189;-82
2021/10/22 10:05:11;;;;;;;8.50;2.60;;;11.80;67.90;;;;;;5040405;28;20228;-83
2021/10/22 10:07:39;;;;;;;8.20;2.55;;;11.70;67.50;;;;;;5057446;28;20177;-83
2021/10/22 10:10:06;;;;;;;6.32;2.40;;;11.80;67.50;;;;;;5058442;28;20302;-84
2021/10/22 10:12:35;;;;;;;7.78;2.28;;;11.80;67.50;;;;;;5057684;28;20613;-83
2021/10/22 10:15:03;;;;;;;7.22;2.47;;;11.80;67.40;;;;;;5057867;28;20266;-83
2021/10/22 10:17:29;;;;;;;4.85;2.88;;;11.80;67.20;;;;;;5059498;28;20173;-83
2021/10/22 10:19:56;;;;;;;9.13;2.72;;;11.90;66.80;;;;;;5059049;28;20511;-83
2021/10/22 10:22:31;;;;;;;14.10;2.35;;;11.90;66.60;;;;;;5057692;28;20234;-83
2021/10/22 10:25:00;;;;;;;8.02;2.78;;;12.20;66.60;;;;;;5060238;28;20200;-82
2021/10/22 10:27:26;;;;;;;16.77;2.38;;;12.40;66.30;;;;;;5071553;28;20176;-83
2021/10/22 10:29:59;;;;;;;6.80;3.17;;;12.50;65.70;;;;;;5064706;28;20207;-82
2021/10/22 10:32:28;;;;;;;8.68;2.40;;;12.60;64.90;;;;;;5067254;28;20634;-83
2021/10/22 10:34:59;;;;;;;7.22;2.85;;;12.80;64.70;;;;;;5073449;28;20223;-82
2021/10/22 10:37:24;;;;;;;5.88;3.10;;;12.80;64.30;;;;;;5073197;28;20176;-83
2021/10/22 10:39:57;;;;;;;3.57;2.27;;;13.00;64.30;;;;;;5074543;28;20185;-83
2021/10/22 10:42:34;;;;;;;10.13;2.33;;;13.10;63.80;;;;;;5070637;28;20216;-83
2021/10/22 10:45:29;;;;;;;7.97;2.60;;;13.20;63.10;;;;;;5053590;28;20221;-83
2021/10/22 10:47:56;;;;;;;12.02;2.83;;;13.20;63.20;;;;;;5038325;28;20192;-83
2021/10/22 10:50:52;;;;;;;10.20;2.38;;;13.10;63.50;;;;;;5055122;28;20186;-83
2021/10/22 10:53:31;;;;;;;11.15;2.40;;;13.20;64.00;;;;;;5039072;28;20680;-83
2021/10/22 10:55:57;;;;;;;13.20;2.90;;;13.30;64.10;;;;;;5038296;28;20173;-83
2021/10/22 10:58:24;;;;;;;13.40;4.07;;;13.10;64.70;;;;;;5055988;28;20201;-83
2021/10/22 11:01:07;;;;;;;19.20;3.08;;;13.10;64.40;;;;;;5058721;28;20181;-83
2021/10/22 11:03:46;;;;;;;11.30;3.00;;;13.10;64.20;;;;;;5058438;28;20206;-83
2021/10/22 11:06:35;;;;;;;9.57;3.60;;;13.20;64.40;;;;;;5063679;28;20232;-83
2021/10/22 11:09:05;;;;;;;7.35;2.40;;;13.10;64.10;;;;;;5047887;28;20637;-84
2021/10/22 11:11:36;;;;;;;8.40;3.10;;;13.20;63.90;;;;;;5047791;28;20177;-83
2021/10/22 11:14:02;;;;;;;13.07;2.50;;;13.30;64.40;;;;;;5064105;28;20205;-83
2021/10/22 11:16:44;;;;;;;13.98;4.07;;;13.30;65.20;;;;;;5047741;28;20249;-83
2021/10/22 11:19:14;;;;;;;9.63;2.65;;;13.40;65.60;;;;;;5060047;28;20203;-82
2021/10/22 11:21:54;;;;;;;7.63;2.80;;;13.60;65.80;;;;;;5062247;28;20212;-84
2021/10/22 11:24:24;;;;;;;9.55;2.40;;;13.60;66.10;;;;;;5080474;28;20220;-83
2021/10/22 11:27:20;;;;;;;10.80;2.58;;;13.70;65.60;;;;;;5077447;28;20162;-83
2021/10/22 11:29:51;;;;;;;6.30;1.67;;;13.90;64.50;;;;;;5093182;28;20311;-83
2021/10/22 11:32:23;;;;;;;7.50;2.47;;;14.00;64.10;;;;;;5068240;28;20244;-84
2021/10/22 11:35:00;;;;;;;3.83;1.85;;;13.90;63.60;;;;;;5061115;28;20181;-83
2021/10/22 11:37:33;;;;;;;3.80;1.60;;;13.70;62.80;;;;;;5061257;28;20175;-83
2021/10/22 11:40:04;;;;;;;10.68;2.85;;;13.70;63.70;;;;;;5059695;28;20617;-84
2021/10/22 11:42:31;;;;;;;5.13;1.70;;;13.40;64.40;;;;;;5061487;28;20272;-83
2021/10/22 11:45:19;;;;;;;7.38;2.10;;;13.60;65.30;;;;;;5072706;28;20185;-84
2021/10/22 11:47:46;;;;;;;4.78;1.83;;;13.50;65.10;;;;;;5079112;28;20176;-84
2021/10/22 11:50:27;;;;;;;5.03;1.55;;;13.80;65.20;;;;;;5061494;28;20200;-84
2021/10/22 11:53:04;;;;;;;7.25;2.15;;;13.80;65.00;;;;;;5076690;28;20188;-84
2021/10/22 11:55:30;;;;;;;8.40;1.50;;;14.10;64.80;;;;;;5070477;28;20218;-84
2021/10/22 11:58:02;;;;;;;4.13;1.48;;;13.80;63.90;;;;;;5063186;28;20184;-84
2021/10/22 12:00:28;;;;;;;4.70;1.40;;;13.80;64.90;;;;;;5061946;28;20188;-84
2021/10/22 12:02:53;;;;;;;5.97;2.70;;;13.60;64.00;;;;;;5062109;28;20177;-83
2021/10/22 12:05:20;;;;;;;5.87;1.67;;;13.60;64.70;;;;;;5062186;28;20610;-84
2021/10/22 12:07:54;;;;;;;9.60;1.75;;;13.50;64.60;;;;;;5043887;28;20440;-84
2021/10/22 12:10:20;;;;;;;15.32;2.05;;;13.30;65.10;;;;;;5043954;28;20204;-84
2021/10/22 12:12:50;;;;;;;7.83;2.10;;;13.20;65.90;;;;;;5027087;28;20224;-84
2021/10/22 12:15:19;;;;;;;4.70;2.22;;;13.00;67.10;;;;;;5042921;28;20432;-83
2021/10/22 12:17:46;;;;;;;5.68;2.17;;;13.00;66.70;;;;;;5060657;28;20193;-83
2021/10/22 12:20:12;;;;;;;4.78;1.88;;;13.20;67.00;;;;;;5061136;28;20176;-84
2021/10/22 12:22:41;;;;;;;5.57;1.73;;;13.10;66.00;;;;;;5043050;28;20185;-84
2021/10/22 12:25:19;;;;;;;6.45;1.75;;;13.30;66.50;;;;;;5042788;28;20244;-84
2021/10/22 12:28:00;;;;;;;7.32;2.15;;;13.20;66.50;;;;;;5042437;28;20204;-84
2021/10/22 12:30:28;;;;;;;8.02;1.55;;;13.50;65.90;;;;;;5042291;28;20173;-84
2021/10/22 12:33:15;;;;;;;8.15;1.58;;;13.40;65.00;;;;;;5036928;28;20296;-81
2021/10/22 12:35:47;;;;;;;5.32;2.00;;;13.40;65.60;;;;;;5051519;28;20759;-82
2021/10/22 12:38:18;;;;;;;4.70;2.05;;;13.40;66.40;;;;;;5042394;28;20221;-79
2021/10/22 12:40:45;;;;;;;4.90;2.13;;;13.40;66.90;;;;;;5041666;28;20197;-81
2021/10/22 12:43:24;;;;;;;4.47;2.15;;;13.40;66.60;;;;;;5032184;28;20264;-82
2021/10/22 12:46:05;;;;;;;8.20;2.95;;;13.20;66.70;;;;;;5041685;28;20674;-81
2021/10/22 12:48:57;;;;;;;12.52;2.15;;;13.10;67.30;;;;;;5040828;28;20632;-81
2021/10/22 12:51:25;;;;;;;2.63;1.35;;;13.20;67.80;;;;;;5026158;28;20200;-81
2021/10/22 12:53:58;;;;;;;4.40;2.17;;;13.40;67.20;;;;;;5058290;28;20213;-81
2021/10/22 12:56:29;;;;;;;7.75;2.20;;;13.30;66.80;;;;;;5057690;28;20168;-82
2021/10/22 12:58:56;;;;;;;3.67;1.55;;;13.30;67.30;;;;;;5040521;28;20173;-84
2021/10/22 13:01:35;;;;;;;4.13;1.83;;;13.30;68.00;;;;;;5039062;28;20636;-85
2021/10/22 13:04:04;;;;;;;3.58;1.10;;;13.40;68.40;;;;;;5038806;28;20216;-85
2021/10/22 13:06:42;;;;;;;18.83;2.10;;;13.50;68.50;;;;;;5058253;28;20228;-84